Flight Briefing for CPX657

Departure Arrival
Southwest Florida International Airport (KRSW)
Click to view FAA NOTAMS
Miami International Airport (KMIA)
Click to view FAA NOTAMS
Departure Time Arrival Time
N/A N/A
Aircraft Distance
SF340AF 91nm
Departure METAR Arrival METAR
KRSW 200853Z 02009KT 10SM OVC008 16/14 A3001 RMK AO2 CIG 007V011 SLP160 T01560144 56010 KMIA 200853Z 33007KT 10SM BKN004 BKN031 OVC050 18/18 A2995 RMK AO2 RAE02 SLP143 P0000 60000 T01830183 56014
Suggested Route
CYY CYY9


View recent IFR Routes data
Notes



Charts and Procedures

Charts for KRSW
No chart available
Charts for KMIA
No chart available

Windy.com Weather Map